Time;durP1;ratioP1;P1;durP2;ratioP2;P2;SDS_P1;SDS_P2;PMS_P1;PMS_P2;Temp;Humidity;BMP_temperature;BMP_pressure;BME280_temperature;BME280_humidity;BME280_pressure;Samples;Min_cycle;Max_cycle;Signal;HPM_P1;HPM_P2
2021/06/11 00:00:50;;;;;;;7.10;4.47;;;;;;;14.97;68.85;101191.07;126987;1092;63067;-81
2021/06/11 00:03:18;;;;;;;4.40;3.37;;;;;;;14.94;68.92;101199.48;127109;1093;62464;-80
2021/06/11 00:05:45;;;;;;;6.97;4.23;;;;;;;14.91;69.13;101199.84;126762;1093;62592;-79
2021/06/11 00:08:12;;;;;;;4.73;3.00;;;;;;;14.89;69.39;101196.54;126364;1093;62217;-79
2021/06/11 00:10:39;;;;;;;5.73;4.10;;;;;;;14.88;69.39;101200.24;126664;1093;62798;-79
2021/06/11 00:13:07;;;;;;;7.50;3.67;;;;;;;14.87;69.72;101203.91;126204;1092;63067;-79
2021/06/11 00:15:34;;;;;;;6.60;3.50;;;;;;;14.86;70.04;101203.09;126279;1093;62945;-79
2021/06/11 00:18:02;;;;;;;4.33;3.40;;;;;;;14.87;70.10;101201.24;126498;1093;62314;-78
2021/06/11 00:20:30;;;;;;;7.27;3.63;;;;;;;14.86;70.06;101202.27;126267;1093;62627;-79
2021/06/11 00:22:57;;;;;;;5.20;3.47;;;;;;;14.86;70.33;101207.62;126746;1093;62797;-78
2021/06/11 00:25:25;;;;;;;3.60;2.93;;;;;;;14.85;70.27;101205.95;126143;1093;63015;-79
2021/06/11 00:27:54;;;;;;;6.00;3.40;;;;;;;14.82;70.05;101207.16;126791;1093;64475;-79
2021/06/11 00:30:23;;;;;;;6.77;3.23;;;;;;;14.79;70.24;101206.70;126735;1093;64147;-79
2021/06/11 00:32:50;;;;;;;6.57;3.67;;;;;;;14.76;70.78;101201.76;126852;1093;63000;-79
2021/06/11 00:35:17;;;;;;;5.17;3.30;;;;;;;14.73;70.55;101205.64;127070;1093;62938;-79
2021/06/11 00:37:44;;;;;;;4.77;3.47;;;;;;;14.72;70.91;101205.83;127079;1093;63008;-79
2021/06/11 00:40:12;;;;;;;5.50;3.70;;;;;;;14.71;71.36;101202.33;127015;1093;63127;-79
2021/06/11 00:42:39;;;;;;;6.13;3.93;;;;;;;14.71;71.45;101204.19;127242;1093;62842;-80
2021/06/11 00:45:09;;;;;;;8.17;3.77;;;;;;;14.69;71.14;101201.70;127004;1093;62861;-79
2021/06/11 00:47:37;;;;;;;5.13;3.60;;;;;;;14.67;71.48;101204.55;126975;1092;63449;-79
2021/06/11 00:50:06;;;;;;;8.40;3.07;;;;;;;14.64;71.28;101199.59;126908;1093;62875;-81
2021/06/11 00:52:34;;;;;;;3.50;2.57;;;;;;;14.61;71.67;101201.81;127003;1092;62942;-81
2021/06/11 00:55:02;;;;;;;5.23;3.10;;;;;;;14.55;71.81;101203.38;127060;1093;62468;-81
2021/06/11 00:57:29;;;;;;;5.47;3.63;;;;;;;14.51;72.13;101194.06;126909;1092;62574;-80
2021/06/11 00:59:56;;;;;;;5.87;3.53;;;;;;;14.48;72.06;101205.13;126921;1093;63193;-80
2021/06/11 01:02:24;;;;;;;8.17;3.83;;;;;;;14.44;71.98;101201.18;127018;1093;62242;-80
2021/06/11 01:04:51;;;;;;;8.67;3.77;;;;;;;14.42;72.11;101200.54;127080;1093;63427;-80
2021/06/11 01:07:22;;;;;;;8.47;4.67;;;;;;;14.40;72.45;101203.39;127065;1093;63041;-80
2021/06/11 01:09:54;;;;;;;9.60;3.70;;;;;;;14.36;72.62;101201.28;126744;1093;63077;-78
2021/06/11 01:12:21;;;;;;;6.60;3.50;;;;;;;14.32;72.56;101202.67;126947;1093;62787;-79
2021/06/11 01:14:49;;;;;;;11.17;5.20;;;;;;;14.29;73.02;101201.21;126973;1093;62352;-80
2021/06/11 01:17:18;;;;;;;4.40;3.17;;;;;;;14.24;74.13;101201.77;126611;1093;62942;-79
2021/06/11 01:19:48;;;;;;;6.67;4.20;;;;;;;14.21;73.92;101199.47;126632;1093;62900;-80
2021/06/11 01:22:21;;;;;;;6.23;3.60;;;;;;;14.17;74.39;101200.84;126966;1092;62929;-79
2021/06/11 01:25:07;;;;;;;6.37;3.83;;;;;;;14.13;74.71;101199.59;126663;1093;62758;-80
2021/06/11 01:27:36;;;;;;;7.37;4.10;;;;;;;14.13;74.79;101196.08;126546;1093;63205;-79
2021/06/11 01:30:14;;;;;;;7.95;3.85;;;;;;;14.11;75.10;101192.77;126855;1093;64898;-79
2021/06/11 01:32:44;;;;;;;6.93;4.00;;;;;;;14.08;75.04;101194.79;126795;1093;62932;-79
2021/06/11 01:35:22;;;;;;;7.10;4.70;;;;;;;14.06;75.14;101191.48;126810;1093;63815;-80
2021/06/11 01:37:57;;;;;;;5.67;4.37;;;;;;;14.10;75.43;101185.79;126721;1093;62428;-79
2021/06/11 01:40:24;;;;;;;6.83;4.07;;;;;;;14.12;74.87;101194.44;126738;1093;62908;-81
2021/06/11 01:42:51;;;;;;;6.03;4.20;;;;;;;14.12;75.34;101189.92;126851;1092;62903;-82
2021/06/11 01:45:19;;;;;;;6.07;4.07;;;;;;;14.13;75.06;101191.59;126674;1093;63364;-80
2021/06/11 01:47:49;;;;;;;6.67;4.20;;;;;;;14.13;75.39;101191.59;126754;1093;62825;-79
2021/06/11 01:50:37;;;;;;;8.33;4.63;;;;;;;14.12;75.16;101189.10;126958;1093;62335;-80
2021/06/11 01:53:06;;;;;;;10.37;5.83;;;;;;;14.12;75.23;101189.92;128142;1093;62071;-79
2021/06/11 01:55:36;;;;;;;6.53;4.60;;;;;;;14.12;75.49;101189.92;127993;1093;63417;-80
2021/06/11 01:58:04;;;;;;;9.20;4.43;;;;;;;14.13;75.62;101196.92;126539;1093;62944;-79
2021/06/11 02:00:32;;;;;;;7.20;4.40;;;;;;;14.14;75.16;101190.56;126766;1093;62139;-79
2021/06/11 02:03:00;;;;;;;6.27;3.87;;;;;;;14.16;75.52;101190.38;126715;1093;62944;-79
2021/06/11 02:05:28;;;;;;;9.67;4.37;;;;;;;14.18;75.49;101189.17;126826;1093;63491;-80
2021/06/11 02:07:56;;;;;;;6.70;4.70;;;;;;;14.19;75.59;101190.00;126766;1092;63449;-80
2021/06/11 02:10:24;;;;;;;6.37;3.93;;;;;;;14.19;75.43;101190.81;126806;1092;64699;-81
2021/06/11 02:12:53;;;;;;;4.87;3.93;;;;;;;14.18;75.50;101183.84;126843;1093;63102;-80
2021/06/11 02:15:22;;;;;;;6.63;4.13;;;;;;;14.16;75.61;101185.05;127805;1092;63106;-80
2021/06/11 02:17:51;;;;;;;5.77;3.93;;;;;;;14.11;75.27;101176.75;127215;1092;62486;-80
2021/06/11 02:20:23;;;;;;;5.40;4.10;;;;;;;14.13;75.71;101175.58;126870;1093;62751;-79
2021/06/11 02:22:51;;;;;;;7.73;3.87;;;;;;;14.11;75.72;101177.61;126686;1093;62897;-80
2021/06/11 02:25:21;;;;;;;6.13;4.10;;;;;;;14.10;75.74;101183.94;126710;1093;62791;-80
2021/06/11 02:27:48;;;;;;;6.23;3.63;;;;;;;14.10;76.02;101183.13;126798;1093;63492;-79
2021/06/11 02:30:19;;;;;;;5.37;4.10;;;;;;;14.09;75.95;101182.30;127352;1093;62438;-81
2021/06/11 02:32:47;;;;;;;7.17;4.30;;;;;;;14.04;76.36;101172.16;126981;1092;63337;-80
2021/06/11 02:35:20;;;;;;;6.00;3.63;;;;;;;14.04;76.33;101179.34;126740;1093;62855;-79
2021/06/11 02:37:48;;;;;;;5.95;4.45;;;;;;;14.02;76.53;101173.37;126591;1093;62250;-80
2021/06/11 02:40:17;;;;;;;5.60;3.87;;;;;;;14.00;76.82;101180.73;126763;1093;62079;-80
2021/06/11 02:42:49;;;;;;;6.50;4.23;;;;;;;13.97;76.93;101175.78;126373;1093;62556;-78
2021/06/11 02:45:22;;;;;;;7.17;3.90;;;;;;;13.95;76.74;101180.47;126908;1092;62916;-79
2021/06/11 02:47:57;;;;;;;7.77;3.97;;;;;;;13.94;76.84;101182.31;127050;1092;62986;-80
2021/06/11 02:50:31;;;;;;;5.90;3.47;;;;;;;13.92;76.95;101175.48;126465;1093;62866;-80
2021/06/11 02:53:03;;;;;;;5.60;4.20;;;;;;;13.92;77.17;101179.00;126918;1093;62075;-79
2021/06/11 02:55:32;;;;;;;5.63;4.10;;;;;;;13.94;76.98;101176.13;126728;1093;63770;-79
2021/06/11 02:58:15;;;;;;;5.10;3.37;;;;;;;13.91;76.69;101181.84;126547;1093;63012;-79
2021/06/11 03:00:44;;;;;;;5.53;4.17;;;;;;;13.85;77.14;101189.55;126608;1093;62776;-79
2021/06/11 03:03:22;;;;;;;5.20;4.17;;;;;;;13.83;77.16;101186.28;126862;1092;62743;-81
2021/06/11 03:05:56;;;;;;;7.93;4.10;;;;;;;13.83;77.30;101182.76;126873;1093;64184;-79
2021/06/11 03:08:25;;;;;;;5.17;3.70;;;;;;;13.82;77.13;101179.27;126579;1093;63396;-79
2021/06/11 03:10:57;;;;;;;5.43;4.00;;;;;;;13.80;77.29;101175.14;126877;1092;63009;-80
2021/06/11 03:13:28;;;;;;;5.50;3.93;;;;;;;13.79;77.38;101176.98;126503;1093;63510;-80
2021/06/11 03:16:00;;;;;;;5.57;3.60;;;;;;;13.79;77.20;101176.98;126873;1092;64203;-80
2021/06/11 03:18:33;;;;;;;6.80;3.47;;;;;;;13.80;77.54;101177.81;127065;1093;63915;-80
2021/06/11 03:21:18;;;;;;;5.40;3.63;;;;;;;13.83;77.65;101175.61;126927;1093;62213;-80
2021/06/11 03:23:50;;;;;;;4.90;3.57;;;;;;;13.87;77.21;101182.20;126793;1093;62694;-80
2021/06/11 03:26:25;;;;;;;5.83;3.70;;;;;;;13.90;77.22;101177.51;126949;1093;62900;-80
2021/06/11 03:29:01;;;;;;;3.80;3.10;;;;;;;13.90;77.31;101183.70;126756;1093;62876;-80
2021/06/11 03:31:33;;;;;;;5.93;4.03;;;;;;;13.91;77.33;101187.18;126849;1093;62919;-80
2021/06/11 03:34:06;;;;;;;4.73;3.50;;;;;;;13.93;77.01;101185.16;126932;1093;62948;-80
2021/06/11 03:36:40;;;;;;;4.43;3.40;;;;;;;13.95;77.11;101183.14;126713;1093;62941;-79
2021/06/11 03:39:10;;;;;;;;;;;;;;;13.98;77.05;101172.08;126842;1092;62448;-80
2021/06/11 03:41:38;;;;;;;6.37;3.97;;;;;;;14.01;77.23;101174.40;126876;1092;62938;-80
2021/06/11 03:44:09;;;;;;;5.50;4.07;;;;;;;14.05;77.35;101179.17;126855;1093;62774;-80
2021/06/11 03:46:40;;;;;;;5.40;3.70;;;;;;;14.10;76.87;101178.61;127491;1093;62174;-79
2021/06/11 03:49:08;;;;;;;5.33;3.40;;;;;;;14.14;76.85;101173.73;126501;1093;63109;-79
2021/06/11 03:51:39;;;;;;;4.93;3.67;;;;;;;14.16;76.75;101174.38;126496;1093;63490;-76
2021/06/11 03:54:09;;;;;;;4.10;3.47;;;;;;;14.19;76.85;101165.98;128767;1093;62008;-77
2021/06/11 03:56:37;;;;;;;5.07;3.67;;;;;;;14.23;76.44;101175.27;127480;1093;62509;-78
2021/06/11 03:59:11;;;;;;;6.30;3.80;;;;;;;14.27;76.50;101166.70;126295;1093;62765;-77
2021/06/11 04:01:43;;;;;;;6.43;4.00;;;;;;;14.31;76.46;101171.67;126272;1092;62925;-78
2021/06/11 04:04:11;;;;;;;8.57;3.93;;;;;;;14.34;76.19;101172.11;126288;1093;63784;-77
2021/06/11 04:06:41;;;;;;;4.77;4.07;;;;;;;14.41;76.40;101169.54;126285;1092;62561;-78
2021/06/11 04:09:13;;;;;;;6.33;3.73;;;;;;;14.46;76.31;101170.61;126017;1093;62297;-78
2021/06/11 04:11:46;;;;;;;5.40;3.67;;;;;;;14.50;76.08;101173.73;126393;1093;62763;-78
2021/06/11 04:14:23;;;;;;;5.17;3.83;;;;;;;14.54;76.06;101175.02;126314;1093;64207;-77
2021/06/11 04:16:56;;;;;;;8.45;4.15;;;;;;;14.62;76.36;101179.42;126245;1093;63141;-78
2021/06/11 04:19:41;;;;;;;6.40;4.37;;;;;;;14.66;75.90;101178.02;126376;1093;62948;-77
2021/06/11 04:22:10;;;;;;;;;;;;;;;14.73;75.75;101175.41;126901;1093;62913;-78
2021/06/11 04:24:42;;;;;;;6.77;4.20;;;;;;;14.81;75.75;101183.31;126921;1093;62351;-78
2021/06/11 04:27:11;;;;;;;6.27;3.70;;;;;;;14.91;75.67;101183.00;126916;1093;63179;-78
2021/06/11 04:29:41;;;;;;;4.90;3.43;;;;;;;14.99;75.64;101178.34;127098;1093;62273;-78
2021/06/11 04:32:08;;;;;;;6.37;3.53;;;;;;;15.09;75.15;101180.70;126436;1093;62936;-78
2021/06/11 04:34:35;;;;;;;4.80;3.57;;;;;;;15.17;74.61;101172.52;126630;1093;64272;-79
2021/06/11 04:37:03;;;;;;;8.17;4.20;;;;;;;15.24;74.48;101162.73;126702;1093;64399;-75
2021/06/11 04:39:30;;;;;;;6.03;3.83;;;;;;;15.33;74.38;101171.42;125961;1093;63008;-76
2021/06/11 04:41:57;;;;;;;5.47;4.30;;;;;;;15.44;74.26;101178.08;126173;1093;63073;-75
2021/06/11 04:44:24;;;;;;;5.63;3.90;;;;;;;15.56;74.19;101170.36;126283;1093;62958;-75
2021/06/11 04:46:52;;;;;;;7.70;3.50;;;;;;;15.66;73.70;101171.66;126643;1093;62297;-75
2021/06/11 04:49:19;;;;;;;5.00;3.60;;;;;;;15.76;73.78;101171.31;126975;1093;62984;-76
2021/06/11 04:51:46;;;;;;;4.83;3.47;;;;;;;15.86;73.25;101165.61;126299;1092;62852;-76
2021/06/11 04:54:16;;;;;;;7.20;3.40;;;;;;;15.95;72.96;101169.77;126141;1093;62774;-74
2021/06/11 04:56:43;;;;;;;7.53;4.33;;;;;;;16.03;72.70;101166.11;126320;1093;63158;-75
2021/06/11 04:59:10;;;;;;;6.80;3.67;;;;;;;16.09;72.25;101168.80;126262;1093;62952;-75
2021/06/11 05:01:37;;;;;;;4.37;3.20;;;;;;;16.17;72.49;101167.81;126247;1093;62999;-75
2021/06/11 05:04:04;;;;;;;10.10;4.20;;;;;;;16.25;71.60;101164.94;126213;1092;62818;-75
2021/06/11 05:06:31;;;;;;;5.90;3.50;;;;;;;16.34;71.29;101164.76;126254;1092;62760;-78
2021/06/11 05:08:58;;;;;;;4.63;3.13;;;;;;;16.43;71.08;101160.89;125997;1093;62891;-80
2021/06/11 05:11:25;;;;;;;5.43;3.50;;;;;;;16.52;70.58;101162.34;126534;1092;62932;-78
2021/06/11 05:13:52;;;;;;;5.10;3.20;;;;;;;16.61;70.29;101158.44;128089;1093;62201;-78
2021/06/11 05:16:19;;;;;;;9.23;3.83;;;;;;;16.71;70.17;101158.88;127617;1092;62125;-78
2021/06/11 05:18:47;;;;;;;5.43;3.80;;;;;;;16.82;69.91;101162.02;125993;1093;63308;-78
2021/06/11 05:21:14;;;;;;;4.93;3.67;;;;;;;16.93;69.53;101160.58;126333;1093;62969;-78
2021/06/11 05:23:43;;;;;;;4.57;3.33;;;;;;;17.03;69.79;101155.63;126101;1093;62376;-78
2021/06/11 05:26:10;;;;;;;4.97;3.67;;;;;;;17.16;69.36;101158.30;126380;1093;63963;-77
2021/06/11 05:28:38;;;;;;;3.27;2.63;;;;;;;17.26;69.22;101155.22;126397;1093;62817;-77
2021/06/11 05:31:05;;;;;;;5.73;3.67;;;;;;;17.39;69.19;101147.14;126314;1093;62853;-78
2021/06/11 05:33:33;;;;;;;3.50;2.67;;;;;;;17.51;68.91;101145.48;126187;1093;62340;-77
2021/06/11 05:36:00;;;;;;;4.03;3.20;;;;;;;17.64;68.45;101151.84;126336;1092;62950;-78
2021/06/11 05:38:27;;;;;;;5.70;2.90;;;;;;;17.75;68.07;101151.19;126351;1093;62844;-78
2021/06/11 05:40:55;;;;;;;5.90;3.47;;;;;;;17.87;67.94;101146.85;126554;1093;62803;-78
2021/06/11 05:43:22;;;;;;;5.27;3.60;;;;;;;17.98;67.62;101147.20;126509;1093;62239;-78
2021/06/11 05:45:49;;;;;;;4.43;2.77;;;;;;;18.07;66.97;101143.25;126345;1092;62821;-78
2021/06/11 05:48:16;;;;;;;5.50;3.80;;;;;;;18.18;67.09;101147.13;126290;1093;62942;-78
2021/06/11 05:50:43;;;;;;;4.17;3.30;;;;;;;18.27;66.58;101141.27;126256;1093;63562;-79
2021/06/11 05:53:10;;;;;;;4.33;2.60;;;;;;;18.37;66.04;101140.82;126281;1093;63109;-78
2021/06/11 05:55:38;;;;;;;5.33;3.33;;;;;;;18.45;66.27;101137.06;125997;1093;62314;-78
2021/06/11 05:58:05;;;;;;;5.80;4.20;;;;;;;18.54;66.48;101141.95;126069;1092;62745;-81
2021/06/11 06:00:32;;;;;;;6.67;3.33;;;;;;;18.63;65.80;101139.81;126245;1093;62962;-79
2021/06/11 06:02:59;;;;;;;6.30;3.43;;;;;;;18.75;65.56;101148.83;126522;1093;62963;-77
2021/06/11 06:05:26;;;;;;;4.33;3.50;;;;;;;18.84;65.63;101146.73;126235;1093;62831;-80
2021/06/11 06:07:53;;;;;;;7.87;3.97;;;;;;;18.95;65.31;101145.19;126374;1093;62962;-77
2021/06/11 06:10:21;;;;;;;5.33;3.23;;;;;;;19.11;65.28;101146.52;126182;1093;63744;-76
2021/06/11 06:12:49;;;;;;;5.93;3.70;;;;;;;19.24;64.00;101150.95;126194;1093;62765;-78
2021/06/11 06:15:16;;;;;;;4.80;2.63;;;;;;;19.38;64.66;101147.10;125956;1093;63040;-75
2021/06/11 06:17:43;;;;;;;6.57;3.33;;;;;;;19.52;64.47;101142.39;126387;1092;62897;-76
2021/06/11 06:20:12;;;;;;;10.10;5.23;;;;;;;19.67;63.98;101137.45;126306;1093;63147;-76
2021/06/11 06:22:41;;;;;;;7.93;2.93;;;;;;;19.83;63.22;101137.95;126468;1092;62527;-76
2021/06/11 06:25:10;;;;;;;8.10;3.60;;;;;;;19.95;62.38;101142.35;126490;1093;63106;-75
2021/06/11 06:27:39;;;;;;;7.95;4.55;;;;;;;20.07;61.89;101144.27;126271;1093;62219;-76
2021/06/11 06:30:08;;;;;;;4.47;3.07;;;;;;;20.22;59.97;101135.78;126257;1093;62365;-76
2021/06/11 06:32:36;;;;;;;6.07;2.80;;;;;;;20.35;59.99;101140.98;126410;1093;62775;-76
2021/06/11 06:35:05;;;;;;;5.97;3.40;;;;;;;20.50;59.25;101132.47;126330;1093;64433;-74
2021/06/11 06:37:32;;;;;;;11.63;9.00;;;;;;;20.61;57.24;101138.98;126410;1092;62188;-75
2021/06/11 06:40:00;;;;;;;20.87;14.63;;;;;;;20.73;58.56;101137.13;126314;1092;62647;-76
2021/06/11 06:42:29;;;;;;;5.73;3.43;;;;;;;20.85;56.89;101129.08;126346;1093;62234;-75
2021/06/11 06:44:56;;;;;;;7.00;4.53;;;;;;;20.97;57.31;101128.03;126277;1093;63034;-75
2021/06/11 06:47:23;;;;;;;4.87;3.00;;;;;;;21.08;57.16;101126.39;126258;1093;63361;-76
2021/06/11 06:49:50;;;;;;;6.07;3.93;;;;;;;21.17;57.30;101124.98;126308;1093;62967;-76
2021/06/11 06:52:18;;;;;;;6.63;4.50;;;;;;;21.29;56.18;101132.23;126195;1093;62959;-76
2021/06/11 06:54:45;;;;;;;9.63;8.10;;;;;;;21.43;55.69;101124.77;126407;1093;63011;-76
2021/06/11 06:57:12;;;;;;;5.93;4.20;;;;;;;21.57;55.46;101128.86;126386;1093;62880;-76
2021/06/11 06:59:40;;;;;;;9.03;3.63;;;;;;;21.66;53.38;101123.91;126160;1093;62235;-80
2021/06/11 07:02:07;;;;;;;11.17;4.57;;;;;;;21.76;53.21;101122.23;126769;1092;62893;-81
2021/06/11 07:04:35;;;;;;;7.33;3.80;;;;;;;21.88;51.13;101121.38;126883;1093;62929;-77
2021/06/11 07:07:03;;;;;;;7.00;4.00;;;;;;;21.97;52.16;101128.02;126365;1093;63568;-78
2021/06/11 07:09:30;;;;;;;7.20;3.50;;;;;;;22.03;49.93;101123.55;126085;1093;63115;-77
2021/06/11 07:11:57;;;;;;;6.83;4.10;;;;;;;22.11;50.66;101123.98;126362;1093;63099;-76
2021/06/11 07:14:27;;;;;;;6.53;4.07;;;;;;;22.18;50.65;101126.53;126312;1093;63468;-76
2021/06/11 07:16:55;;;;;;;6.67;3.77;;;;;;;22.23;49.88;101123.98;126290;1093;63083;-75
2021/06/11 07:19:22;;;;;;;8.63;4.10;;;;;;;22.33;50.63;101124.14;126380;1091;62175;-76
2021/06/11 07:21:49;;;;;;;6.00;4.73;;;;;;;22.46;50.89;101127.60;126056;1093;63006;-76
2021/06/11 07:24:16;;;;;;;7.37;4.50;;;;;;;22.59;51.30;101121.91;126177;1093;62946;-76
2021/06/11 07:26:43;;;;;;;8.50;4.60;;;;;;;22.69;49.11;101127.45;126258;1092;62932;-76
2021/06/11 07:29:10;;;;;;;6.73;4.30;;;;;;;22.79;48.77;101127.63;126281;1093;62823;-76
2021/06/11 07:31:37;;;;;;;7.70;3.85;;;;;;;22.89;48.58;101128.88;126270;1093;64487;-75
2021/06/11 07:34:05;;;;;;;6.77;3.70;;;;;;;22.98;48.06;101120.09;126442;1093;63009;-75
2021/06/11 07:36:32;;;;;;;6.30;3.23;;;;;;;23.09;47.00;101125.69;126437;1093;63103;-75
2021/06/11 07:38:59;;;;;;;5.77;3.20;;;;;;;23.18;45.92;101125.00;126353;1093;62201;-75
2021/06/11 07:41:26;;;;;;;6.17;3.33;;;;;;;23.25;46.14;101118.59;126313;1093;64632;-75
2021/06/11 07:43:55;;;;;;;4.20;2.77;;;;;;;23.31;46.81;101131.14;127627;1091;62964;-75
2021/06/11 07:46:22;;;;;;;5.10;3.50;;;;;;;23.36;46.52;101123.91;127573;1093;62955;-75
2021/06/11 07:48:50;;;;;;;4.03;2.67;;;;;;;23.48;46.52;101126.49;127519;1092;62252;-76
2021/06/11 07:51:17;;;;;;;4.23;2.27;;;;;;;23.56;45.99;101119.84;127413;1093;62846;-75
2021/06/11 07:53:45;;;;;;;4.37;2.03;;;;;;;23.68;46.58;101122.43;126894;1092;62337;-75
2021/06/11 07:56:13;;;;;;;3.30;2.60;;;;;;;23.82;45.09;101126.41;126755;1093;62740;-74
2021/06/11 07:58:40;;;;;;;3.20;1.87;;;;;;;23.89;45.41;101127.05;127280;1093;62929;-75
2021/06/11 08:01:07;;;;;;;3.33;2.20;;;;;;;23.96;44.57;101119.53;126412;1093;62450;-75
2021/06/11 08:03:34;;;;;;;3.87;2.07;;;;;;;24.01;44.80;101122.31;126392;1093;63034;-74
2021/06/11 08:06:01;;;;;;;4.70;2.80;;;;;;;24.07;44.42;101125.06;126488;1093;62874;-74
2021/06/11 08:08:28;;;;;;;5.30;2.50;;;;;;;24.12;45.12;101114.27;126478;1093;62841;-75
2021/06/11 08:10:55;;;;;;;4.20;2.23;;;;;;;24.15;44.56;101121.91;126511;1093;62514;-76
2021/06/11 08:13:22;;;;;;;2.90;2.33;;;;;;;24.26;44.76;101120.12;126813;1093;62203;-76
2021/06/11 08:15:50;;;;;;;4.40;2.53;;;;;;;24.34;44.88;101116.95;126220;1093;62955;-76
2021/06/11 08:18:17;;;;;;;4.63;2.30;;;;;;;24.41;44.08;101115.64;126371;1093;63149;-76
2021/06/11 08:20:44;;;;;;;7.07;2.80;;;;;;;24.49;43.36;101113.59;126226;1093;62751;-76
2021/06/11 08:23:11;;;;;;;3.97;3.00;;;;;;;24.49;43.08;101121.73;125994;1093;62461;-75
2021/06/11 08:25:38;;;;;;;3.63;2.57;;;;;;;24.52;43.68;101115.77;126310;1093;62900;-76
2021/06/11 08:28:05;;;;;;;5.27;1.90;;;;;;;24.57;44.05;101123.97;126246;1093;62711;-76
2021/06/11 08:30:33;;;;;;;3.50;2.07;;;;;;;24.62;43.88;101122.10;126005;1092;63092;-76
2021/06/11 08:33:01;;;;;;;5.77;2.80;;;;;;;24.67;43.80;101115.08;126410;1093;63655;-76
2021/06/11 08:35:28;;;;;;;6.03;2.40;;;;;;;24.71;43.85;101116.20;126426;1092;63002;-77
2021/06/11 08:37:56;;;;;;;3.37;2.27;;;;;;;24.72;44.07;101121.38;126760;1093;62839;-78
2021/06/11 08:40:24;;;;;;;2.53;2.23;;;;;;;24.79;43.84;101115.73;126643;1093;63027;-78
2021/06/11 08:42:52;;;;;;;4.27;1.77;;;;;;;24.85;44.48;101119.30;126558;1093;62871;-78
2021/06/11 08:45:21;;;;;;;6.40;3.23;;;;;;;24.93;43.92;101107.97;126666;1092;63009;-78
2021/06/11 08:47:50;;;;;;;2.77;2.03;;;;;;;25.04;44.72;101120.52;126483;1093;62872;-80
2021/06/11 08:50:24;;;;;;;3.30;2.40;;;;;;;25.08;43.49;101112.69;126706;1093;62247;-78
2021/06/11 08:52:51;;;;;;;3.70;2.10;;;;;;;25.16;44.11;101121.16;126548;1093;63054;-77
2021/06/11 08:55:20;;;;;;;3.37;2.87;;;;;;;25.25;44.52;101117.95;126198;1093;63113;-75
2021/06/11 08:57:47;;;;;;;4.37;2.73;;;;;;;25.35;44.40;101121.56;126125;1093;62984;-76
2021/06/11 09:00:15;;;;;;;4.63;2.77;;;;;;;25.36;42.88;101130.52;126416;1093;62984;-78
2021/06/11 09:03:26;;;;;;;4.00;3.40;;;;;;;25.42;42.41;101118.61;126305;1093;62788;-80
2021/06/11 09:06:05;;;;;;;4.53;2.60;;;;;;;25.47;43.78;101124.05;126761;1092;62830;-78
2021/06/11 09:08:36;;;;;;;4.40;3.33;;;;;;;25.46;41.07;101121.59;126522;1093;63035;-79
2021/06/11 09:11:13;;;;;;;5.13;3.67;;;;;;;25.55;43.13;101120.84;126808;1093;63889;-79
2021/06/11 09:13:42;;;;;;;5.73;3.80;;;;;;;25.63;41.56;101120.33;126976;1093;63390;-79
2021/06/11 09:16:16;;;;;;;4.80;4.00;;;;;;;25.72;41.54;101122.54;126674;1093;62294;-79
2021/06/11 09:18:58;;;;;;;3.70;2.75;;;;;;;25.85;43.06;101122.03;126782;1093;62897;-79
2021/06/11 09:21:35;;;;;;;3.97;3.10;;;;;;;26.05;42.47;101121.30;126759;1093;62983;-78
2021/06/11 09:24:19;;;;;;;4.77;3.27;;;;;;;26.24;42.56;101124.33;126405;1092;62939;-78
2021/06/11 09:27:00;;;;;;;7.43;3.40;;;;;;;26.39;41.59;101128.97;126679;1093;62987;-78
2021/06/11 09:29:32;;;;;;;14.27;3.77;;;;;;;26.39;40.09;101116.18;126628;1093;62948;-79
2021/06/11 09:32:28;;;;;;;9.90;4.20;;;;;;;26.43;38.71;101117.27;126729;1092;64329;-79
2021/06/11 09:35:03;;;;;;;5.20;2.37;;;;;;;26.56;41.24;101124.11;126544;1093;63146;-79
2021/06/11 09:37:37;;;;;;;5.50;3.23;;;;;;;26.56;41.75;101128.71;126715;1093;63003;-78
2021/06/11 09:40:10;;;;;;;6.83;4.23;;;;;;;26.51;39.10;101117.84;126448;1092;62917;-78
2021/06/11 09:42:44;;;;;;;3.70;3.17;;;;;;;26.50;40.63;101118.91;126996;1093;62160;-78
2021/06/11 09:45:16;;;;;;;5.50;3.57;;;;;;;26.54;41.05;101128.16;126432;1092;63045;-76
2021/06/11 09:47:51;;;;;;;4.47;3.03;;;;;;;26.64;42.16;101120.04;126466;1093;62219;-78
2021/06/11 09:50:24;;;;;;;4.90;3.30;;;;;;;26.61;41.79;101124.13;126359;1093;62303;-78
2021/06/11 09:52:58;;;;;;;8.53;2.68;;;;;;;26.60;40.10;101127.92;126413;1093;64360;-78
2021/06/11 09:55:34;;;;;;;6.60;2.97;;;;;;;26.58;39.10;101135.54;126736;1092;64657;-76
2021/06/11 09:58:11;;;;;;;9.27;3.60;;;;;;;26.53;37.52;101127.36;126348;1093;62441;-77
2021/06/11 10:00:54;;;;;;;5.80;3.10;;;;;;;26.50;38.74;101136.08;126676;1093;64456;-77
2021/06/11 10:03:23;;;;;;;8.77;3.20;;;;;;;26.49;37.49;101136.34;126586;1093;62319;-77
2021/06/11 10:05:53;;;;;;;3.43;2.20;;;;;;;26.45;38.78;101142.30;126470;1093;62945;-76
2021/06/11 10:08:21;;;;;;;5.43;3.57;;;;;;;26.42;39.59;101126.53;126409;1093;62963;-77
2021/06/11 10:10:52;;;;;;;6.03;3.30;;;;;;;26.42;39.40;101126.53;126369;1093;63053;-78
2021/06/11 10:13:20;;;;;;;4.20;3.37;;;;;;;26.45;39.53;101123.26;126689;1093;63012;-77
2021/06/11 10:15:51;;;;;;;4.87;3.37;;;;;;;26.54;40.23;101125.44;126646;1093;63112;-77
2021/06/11 10:18:19;;;;;;;4.20;3.27;;;;;;;26.70;39.25;101120.87;127755;1093;62948;-77
2021/06/11 10:20:46;;;;;;;3.97;3.20;;;;;;;26.88;39.06;101127.64;126539;1093;62944;-78
2021/06/11 10:23:16;;;;;;;4.93;4.00;;;;;;;26.93;38.92;101130.38;126536;1092;62951;-78
2021/06/11 10:25:46;;;;;;;7.07;4.23;;;;;;;26.70;40.52;101132.56;126205;1092;63008;-78
2021/06/11 10:28:21;;;;;;;7.13;4.33;;;;;;;26.68;39.73;101125.77;126173;1093;63052;-79
2021/06/11 10:30:49;;;;;;;4.30;3.37;;;;;;;26.59;41.15;101118.14;126566;1092;63031;-80
2021/06/11 10:33:16;;;;;;;6.70;4.40;;;;;;;26.39;41.48;101118.09;126598;1093;62932;-79
2021/06/11 10:35:46;;;;;;;4.17;3.30;;;;;;;26.16;40.55;101116.70;126534;1093;63012;-77
2021/06/11 10:38:32;;;;;;;2.97;2.57;;;;;;;26.26;41.16;101138.47;126419;1091;64468;-78
2021/06/11 10:41:04;;;;;;;5.50;3.63;;;;;;;26.47;41.23;101116.75;126272;1092;62724;-78
2021/06/11 10:43:39;;;;;;;8.00;4.40;;;;;;;26.59;40.15;101125.50;126185;1092;62838;-78
2021/06/11 10:46:22;;;;;;;4.45;3.70;;;;;;;26.57;40.01;101114.88;126357;1093;63070;-79
2021/06/11 10:49:09;;;;;;;7.23;3.53;;;;;;;26.38;40.76;101117.28;126444;1093;64470;-78
2021/06/11 10:51:47;;;;;;;4.53;3.17;;;;;;;26.45;41.16;101111.56;126251;1093;63601;-76
2021/06/11 10:54:17;;;;;;;7.77;3.93;;;;;;;26.30;39.33;101106.93;126391;1093;62941;-76
2021/06/11 10:57:14;;;;;;;8.10;4.50;;;;;;;26.29;40.32;101099.88;126328;1093;62804;-76
2021/06/11 10:59:45;;;;;;;7.13;4.00;;;;;;;26.47;40.19;101114.02;126557;1093;63676;-75
2021/06/11 11:02:14;;;;;;;4.83;3.83;;;;;;;26.48;39.64;101112.92;126958;1092;62986;-76
2021/06/11 11:04:47;;;;;;;5.87;3.13;;;;;;;26.36;40.13;101108.57;128177;1093;61906;-76
2021/06/11 11:07:23;;;;;;;4.10;2.47;;;;;;;26.27;39.76;101110.20;127173;1093;62956;-75
2021/06/11 11:09:59;;;;;;;6.90;3.77;;;;;;;26.33;40.18;101108.29;126457;1093;62961;-74
2021/06/11 11:12:30;;;;;;;4.53;3.23;;;;;;;26.31;41.05;101096.86;126325;1093;62301;-76
2021/06/11 11:14:59;;;;;;;6.93;3.93;;;;;;;26.43;40.71;101109.11;126357;1093;62819;-75
2021/06/11 11:17:28;;;;;;;5.13;3.00;;;;;;;26.50;40.87;101100.70;126060;1092;63033;-76
2021/06/11 11:20:02;;;;;;;3.40;3.03;;;;;;;26.71;40.64;101104.24;126319;1093;63140;-75
2021/06/11 11:22:37;;;;;;;7.13;3.73;;;;;;;26.79;41.11;101087.36;126307;1093;63127;-75
2021/06/11 11:25:14;;;;;;;4.27;3.20;;;;;;;26.89;40.30;101091.98;126266;1093;64466;-74
2021/06/11 11:27:52;;;;;;;4.55;3.35;;;;;;;26.91;40.15;101094.45;126881;1093;62938;-75
2021/06/11 11:30:20;;;;;;;5.73;3.20;;;;;;;27.03;39.98;101086.77;127259;1093;62964;-75